Archival Weather

Republic

Farmingdale, New York (KFRG)

Report from: Tuesday, January 30, 2024 10:53 PM EST
Current time: Friday, June 21, 2024 2:54 AM EDT

Current weather – Weather history – Daily summaries
Weather forecast

Temperature1.7°C (35.1°F)
Wind chill-2.9°C (26.8°F)
Dew point-3.3°C (26.1°F)
Winds 10 kts (5.1 m/s, 11.5 mph) East-Southeast (120°)
Visibility10 mi. (16.1 km)
Clouds Ceiling: Broken clouds 2,700 ft. (823 m)
Overcast 3,200 ft. (975 m)
Altimeter30.19 in.Hg (1022 mB)
Relative humidity69 %
Density altitude-1,855 ft. (-566 m)
Sea-level pressure102.2 kPa (1022 mB, 30.19 in.Hg)
Remarks System requires maintenance
Automated weather observing station without precipitation discriminator
Flight conditions Marginal Visual Meteorological Conditions
Raw dataKFRG 310353Z 12010KT 10SM BKN027 OVC032 02/M03 A3019 RMK AO1 SLP224 T00171033 $
An error has occurred. This application may no longer respond until reloaded. Reload 🗙